createdAt,value
2022-09-09T00:00:28.343Z,11.01
2022-09-09T00:03:06.081Z,10.90
2022-09-09T00:05:41.552Z,10.76
2022-09-09T00:08:19.637Z,10.71
2022-09-09T00:10:52.428Z,10.69
2022-09-09T00:13:25.470Z,10.66
2022-09-09T00:16:00.414Z,10.63
2022-09-09T00:18:35.053Z,10.53
2022-09-09T00:21:08.667Z,10.52
2022-09-09T00:23:41.463Z,10.49
2022-09-09T00:26:14.677Z,10.47
2022-09-09T00:28:57.046Z,10.39
2022-09-09T00:31:29.614Z,10.41
2022-09-09T00:34:03.785Z,10.42
2022-09-09T00:36:33.892Z,10.39
2022-09-09T00:39:04.999Z,10.38
2022-09-09T00:41:36.363Z,10.34
2022-09-09T00:44:15.152Z,10.32
2022-09-09T00:46:56.869Z,10.26
2022-09-09T00:49:37.071Z,10.25
2022-09-09T00:52:15.369Z,10.26
2022-09-09T00:54:50.455Z,10.24
2022-09-09T00:57:26.200Z,10.22
2022-09-09T00:59:59.641Z,10.23
2022-09-09T01:02:31.030Z,10.23
2022-09-09T01:05:06.742Z,10.21
2022-09-09T01:07:35.503Z,10.23
2022-09-09T01:10:06.509Z,10.22
2022-09-09T01:12:42.858Z,10.21
2022-09-09T01:15:17.393Z,10.22
2022-09-09T01:18:01.235Z,10.21
2022-09-09T01:20:40.741Z,10.24
2022-09-09T01:23:28.216Z,10.24
2022-09-09T01:26:29.700Z,10.22
2022-09-09T01:29:01.664Z,10.21
2022-09-09T01:31:40.148Z,10.19
2022-09-09T01:34:13.154Z,10.16
2022-09-09T01:36:45.438Z,10.21
2022-09-09T01:39:14.866Z,10.27
2022-09-09T01:41:45.678Z,10.27
2022-09-09T01:44:16.002Z,10.33
2022-09-09T01:46:46.857Z,10.33
2022-09-09T01:49:20.619Z,10.35
2022-09-09T01:51:51.606Z,10.31
2022-09-09T01:54:22.172Z,10.37
2022-09-09T01:57:00.641Z,10.40
2022-09-09T01:59:43.802Z,10.32
2022-09-09T02:02:14.423Z,10.39
2022-09-09T02:04:56.271Z,10.41
2022-09-09T02:07:37.912Z,10.42
2022-09-09T02:10:13.486Z,10.40
2022-09-09T02:12:56.080Z,10.37
2022-09-09T02:15:34.901Z,10.44
2022-09-09T02:18:08.962Z,10.47
2022-09-09T02:20:40.796Z,10.47
2022-09-09T02:23:11.142Z,10.47
2022-09-09T02:25:42.831Z,10.47
2022-09-09T02:28:22.901Z,10.46
2022-09-09T02:30:56.292Z,10.40
2022-09-09T02:33:35.888Z,10.41
2022-09-09T02:36:07.812Z,10.33
2022-09-09T02:38:41.332Z,10.23
2022-09-09T02:41:14.280Z,10.21
2022-09-09T02:43:44.331Z,10.20
2022-09-09T02:46:29.207Z,10.21
2022-09-09T02:49:03.017Z,10.25
2022-09-09T02:51:42.600Z,10.15
2022-09-09T02:54:19.098Z,10.21
2022-09-09T02:56:52.202Z,10.19
2022-09-09T02:59:25.041Z,10.15
2022-09-09T03:01:54.516Z,10.13
2022-09-09T03:04:26.039Z,10.17
2022-09-09T03:06:54.783Z,10.14
2022-09-09T03:09:23.934Z,10.13
2022-09-09T03:11:52.719Z,10.16
2022-09-09T03:14:27.802Z,10.18
2022-09-09T03:16:57.517Z,10.21
2022-09-09T03:19:27.159Z,10.21
2022-09-09T03:21:55.872Z,10.22
2022-09-09T03:24:25.813Z,10.23
2022-09-09T03:26:54.580Z,10.24
2022-09-09T03:29:24.709Z,10.19
2022-09-09T03:31:56.491Z,10.23
2022-09-09T03:34:25.365Z,10.25
2022-09-09T03:36:54.168Z,10.26
2022-09-09T03:39:23.158Z,10.24
2022-09-09T03:41:51.949Z,10.27
2022-09-09T03:44:21.079Z,10.26
2022-09-09T03:46:50.817Z,10.30
2022-09-09T03:49:21.292Z,10.32
2022-09-09T03:51:50.417Z,10.36
2022-09-09T03:54:19.120Z,10.39
2022-09-09T03:56:47.839Z,10.39
2022-09-09T03:59:17.409Z,10.39
2022-09-09T04:01:46.519Z,10.41
2022-09-09T04:04:16.774Z,10.44
2022-09-09T04:06:46.463Z,10.48
2022-09-09T04:09:15.269Z,10.44
2022-09-09T04:11:44.445Z,10.46
2022-09-09T04:14:13.875Z,10.40
2022-09-09T04:16:44.391Z,10.40
2022-09-09T04:19:14.665Z,10.40
2022-09-09T04:21:46.641Z,10.38
2022-09-09T04:24:17.419Z,10.35
2022-09-09T04:26:46.649Z,10.37
2022-09-09T04:29:15.661Z,10.42
2022-09-09T04:31:44.267Z,10.46
2022-09-09T04:34:13.053Z,10.46
2022-09-09T04:36:42.473Z,10.46
2022-09-09T04:39:13.125Z,10.46
2022-09-09T04:41:41.866Z,10.48
2022-09-09T04:44:12.487Z,10.49
2022-09-09T04:46:42.461Z,10.53
2022-09-09T04:49:15.165Z,10.57
2022-09-09T04:51:45.455Z,10.58
2022-09-09T04:54:16.712Z,10.61
2022-09-09T04:56:47.322Z,10.54
2022-09-09T04:59:16.331Z,10.60
2022-09-09T05:01:48.571Z,10.63
2022-09-09T05:04:17.489Z,10.67
2022-09-09T05:06:46.979Z,10.69
2022-09-09T05:09:18.740Z,10.76
2022-09-09T05:11:50.020Z,10.75
2022-09-09T05:14:32.946Z,10.76
2022-09-09T05:17:03.421Z,10.79
2022-09-09T05:19:32.270Z,10.82
2022-09-09T05:22:02.247Z,10.86
2022-09-09T05:24:40.048Z,10.89
2022-09-09T05:27:13.213Z,10.89
2022-09-09T05:29:45.648Z,10.95
2022-09-09T05:32:16.590Z,10.84
2022-09-09T05:34:48.548Z,10.90
2022-09-09T05:37:18.096Z,10.92
2022-09-09T05:39:48.527Z,10.91
2022-09-09T05:42:18.222Z,10.95
2022-09-09T05:44:47.137Z,10.98
2022-09-09T05:47:16.369Z,10.97
2022-09-09T05:49:44.995Z,11.00
2022-09-09T05:52:13.715Z,11.06
2022-09-09T05:54:42.733Z,11.07
2022-09-09T05:57:13.050Z,11.13
2022-09-09T05:59:42.099Z,11.15
2022-09-09T06:02:11.298Z,11.22
2022-09-09T06:04:39.949Z,11.30
2022-09-09T06:07:08.753Z,11.37
2022-09-09T06:09:38.061Z,11.42
2022-09-09T06:12:07.532Z,11.45
2022-09-09T06:14:41.161Z,11.50
2022-09-09T06:17:13.322Z,11.48
2022-09-09T06:19:41.808Z,11.46
2022-09-09T06:22:13.737Z,11.50
2022-09-09T06:24:43.551Z,11.52
2022-09-09T06:27:14.689Z,11.53
2022-09-09T06:29:45.635Z,11.64
2022-09-09T06:32:14.858Z,11.67
2022-09-09T06:34:43.222Z,11.64
2022-09-09T06:37:12.687Z,11.65
2022-09-09T06:39:49.510Z,11.79
2022-09-09T06:42:20.735Z,11.85
2022-09-09T06:45:25.227Z,11.79
2022-09-09T06:47:59.914Z,11.78
2022-09-09T06:50:29.460Z,11.74
2022-09-09T06:52:58.389Z,11.71
2022-09-09T06:55:27.415Z,11.81
2022-09-09T06:57:56.216Z,11.90
2022-09-09T07:00:27.314Z,12.05
2022-09-09T07:02:56.196Z,12.09
2022-09-09T07:05:27.191Z,12.17
2022-09-09T07:07:55.802Z,12.16
2022-09-09T07:10:25.347Z,12.03
2022-09-09T07:12:54.588Z,12.10
2022-09-09T07:15:27.683Z,12.11
2022-09-09T07:17:57.491Z,12.12
2022-09-09T07:20:26.734Z,12.15
2022-09-09T07:22:57.727Z,12.23
2022-09-09T07:25:27.873Z,12.23
2022-09-09T07:27:56.873Z,12.26
2022-09-09T07:30:27.774Z,12.41
2022-09-09T07:33:00.328Z,12.54
2022-09-09T07:35:30.171Z,12.77
2022-09-09T07:37:59.327Z,12.90
2022-09-09T07:40:28.117Z,13.04
2022-09-09T07:42:57.215Z,12.95
2022-09-09T07:45:26.198Z,12.92
2022-09-09T07:47:55.172Z,13.07
2022-09-09T07:50:25.763Z,13.01
2022-09-09T07:52:54.893Z,12.88
2022-09-09T07:55:26.329Z,12.84
2022-09-09T07:57:55.594Z,12.60
2022-09-09T08:00:25.054Z,12.59
2022-09-09T08:02:58.127Z,12.56
2022-09-09T08:05:28.564Z,12.53
2022-09-09T08:07:58.406Z,12.49
2022-09-09T08:10:27.095Z,12.33
2022-09-09T08:13:16.735Z,12.10
2022-09-09T08:15:46.299Z,12.11
2022-09-09T08:18:15.654Z,12.19
2022-09-09T08:20:45.913Z,12.38
2022-09-09T08:23:14.595Z,12.43
2022-09-09T08:25:42.947Z,12.17
2022-09-09T08:28:11.755Z,12.28
2022-09-09T08:30:41.607Z,12.26
2022-09-09T08:33:11.953Z,12.52
2022-09-09T08:35:40.700Z,12.77
2022-09-09T08:38:11.259Z,12.91
2022-09-09T08:40:45.344Z,12.88
2022-09-09T08:43:14.433Z,12.94
2022-09-09T08:45:52.708Z,13.24
2022-09-09T08:48:35.105Z,13.42
2022-09-09T08:51:04.325Z,13.55
2022-09-09T08:53:42.004Z,13.02
2022-09-09T08:56:14.061Z,13.08
2022-09-09T08:58:50.019Z,13.15
2022-09-09T09:01:38.418Z,13.32
2022-09-09T09:04:18.615Z,13.61
2022-09-09T09:06:53.489Z,13.63
2022-09-09T09:09:31.511Z,13.77
2022-09-09T09:12:04.061Z,13.46
2022-09-09T09:14:40.201Z,12.97
2022-09-09T09:17:15.654Z,12.70
2022-09-09T09:19:45.453Z,12.85
2022-09-09T09:22:21.204Z,12.80
2022-09-09T09:24:57.482Z,12.80
2022-09-09T09:27:33.913Z,13.13
2022-09-09T09:30:26.884Z,13.25
2022-09-09T09:32:57.634Z,13.51
2022-09-09T09:35:27.415Z,13.33
2022-09-09T09:40:53.083Z,13.35
2022-09-09T09:43:24.631Z,13.51
2022-09-09T09:46:14.282Z,13.68
2022-09-09T09:48:43.173Z,13.92
2022-09-09T09:51:15.040Z,14.21
2022-09-09T09:53:45.050Z,14.28
2022-09-09T09:56:17.313Z,14.40
2022-09-09T09:58:52.580Z,14.49
2022-09-09T10:01:28.266Z,14.59
2022-09-09T10:03:59.713Z,14.68
2022-09-09T10:06:34.228Z,14.65
2022-09-09T10:09:05.438Z,14.49
2022-09-09T10:11:45.113Z,13.82
2022-09-09T10:14:20.682Z,13.51
2022-09-09T10:16:57.106Z,13.36
2022-09-09T10:19:32.544Z,13.72
2022-09-09T10:22:17.710Z,13.90
2022-09-09T10:25:17.170Z,14.07
2022-09-09T10:28:03.952Z,13.85
2022-09-09T10:30:44.728Z,13.77
2022-09-09T10:33:20.195Z,13.55
2022-09-09T10:35:55.086Z,13.81
2022-09-09T10:38:30.743Z,13.52
2022-09-09T10:41:12.668Z,13.63
2022-09-09T10:43:55.455Z,13.52
2022-09-09T10:46:33.565Z,13.40
2022-09-09T10:49:10.980Z,13.38
2022-09-09T10:51:45.065Z,13.69
2022-09-09T10:54:27.135Z,13.98
2022-09-09T10:56:59.157Z,13.45
2022-09-09T10:59:31.874Z,13.43
2022-09-09T11:02:03.694Z,13.62
2022-09-09T11:04:36.918Z,13.82
2022-09-09T11:07:12.367Z,14.09
2022-09-09T11:09:52.728Z,14.33
2022-09-09T11:12:27.899Z,14.09
2022-09-09T11:15:04.726Z,13.94
2022-09-09T11:17:41.730Z,14.02
2022-09-09T11:20:14.353Z,14.01
2022-09-09T11:22:52.171Z,14.25
2022-09-09T11:25:23.747Z,14.29
2022-09-09T11:28:10.542Z,13.93
2022-09-09T11:30:56.608Z,14.30
2022-09-09T11:33:53.405Z,14.33
2022-09-09T11:36:38.106Z,14.67
2022-09-09T11:39:31.190Z,15.13
2022-09-09T11:42:09.509Z,15.00
2022-09-09T11:44:39.655Z,14.71
2022-09-09T11:47:24.241Z,14.53
2022-09-09T11:49:53.468Z,14.25
2022-09-09T11:52:40.252Z,14.37
2022-09-09T11:55:28.139Z,14.64
2022-09-09T11:58:01.294Z,14.33
2022-09-09T12:00:36.721Z,14.09
2022-09-09T12:03:08.139Z,14.21
2022-09-09T12:05:41.921Z,14.36
2022-09-09T12:08:12.533Z,14.46
2022-09-09T12:10:42.344Z,14.20
2022-09-09T12:13:18.352Z,14.00
2022-09-09T12:15:50.863Z,14.03
2022-09-09T12:18:26.453Z,14.23
2022-09-09T12:21:01.896Z,13.88
2022-09-09T12:23:38.910Z,13.93
2022-09-09T12:26:31.692Z,14.16
2022-09-09T12:29:09.165Z,13.98
2022-09-09T12:31:45.704Z,13.78
2022-09-09T12:34:20.682Z,14.12
2022-09-09T12:36:54.618Z,14.51
2022-09-09T12:39:30.371Z,14.65
2022-09-09T12:41:59.129Z,14.44
2022-09-09T12:44:29.832Z,14.87
2022-09-09T12:46:58.112Z,15.22
2022-09-09T12:49:32.173Z,15.29
2022-09-09T12:52:02.281Z,15.29
2022-09-09T12:54:31.208Z,15.27
2022-09-09T12:56:59.969Z,14.88
2022-09-09T12:59:37.205Z,14.74
2022-09-09T13:02:20.713Z,14.89
2022-09-09T13:04:51.703Z,14.97
2022-09-09T13:07:21.166Z,15.10
2022-09-09T13:09:51.288Z,14.84
2022-09-09T13:12:23.616Z,14.79
2022-09-09T13:14:55.469Z,14.54
2022-09-09T13:17:25.296Z,14.74
2022-09-09T13:19:56.751Z,14.62
2022-09-09T13:22:31.372Z,14.83
2022-09-09T13:25:05.441Z,15.08
2022-09-09T13:27:36.226Z,15.17
2022-09-09T13:30:23.836Z,15.19
2022-09-09T13:33:03.399Z,14.88
2022-09-09T13:35:34.882Z,14.65
2022-09-09T13:38:10.826Z,14.64
2022-09-09T13:40:40.644Z,14.63
2022-09-09T13:43:20.055Z,14.61
2022-09-09T13:45:55.602Z,14.47
2022-09-09T13:48:24.896Z,14.53
2022-09-09T13:50:59.512Z,14.43
2022-09-09T13:53:28.543Z,14.38
2022-09-09T13:55:58.049Z,14.33
2022-09-09T13:58:27.411Z,14.36
2022-09-09T14:00:56.208Z,14.39
2022-09-09T14:03:25.198Z,14.11
2022-09-09T14:05:54.864Z,14.01
2022-09-09T14:08:27.646Z,13.85
2022-09-09T14:10:59.484Z,13.78
2022-09-09T14:13:28.201Z,13.76
2022-09-09T14:15:57.736Z,13.79
2022-09-09T14:18:26.581Z,13.93
2022-09-09T14:20:55.416Z,14.07
2022-09-09T14:23:25.607Z,14.01
2022-09-09T14:25:54.106Z,14.09
2022-09-09T14:28:45.149Z,14.25
2022-09-09T14:31:11.942Z,14.37
2022-09-09T14:33:40.794Z,14.53
2022-09-09T14:36:09.843Z,14.70
2022-09-09T14:38:41.036Z,14.71
2022-09-09T14:41:10.099Z,14.65
2022-09-09T14:43:40.003Z,14.56
2022-09-09T14:46:09.733Z,14.68
2022-09-09T14:48:41.703Z,14.71
2022-09-09T14:51:13.794Z,14.77
2022-09-09T14:53:47.487Z,14.50
2022-09-09T14:56:18.113Z,14.76
2022-09-09T14:58:46.689Z,14.90
2022-09-09T15:01:17.280Z,14.84
2022-09-09T15:03:52.049Z,15.07
2022-09-09T15:06:21.984Z,15.02
2022-09-09T15:08:53.694Z,15.21
2022-09-09T15:11:25.790Z,15.30
2022-09-09T15:13:55.562Z,15.38
2022-09-09T15:16:26.138Z,15.33
2022-09-09T15:18:58.920Z,15.39
2022-09-09T15:21:29.333Z,15.36
2022-09-09T15:24:01.163Z,15.36
2022-09-09T15:26:31.219Z,15.37
2022-09-09T15:29:00.933Z,15.34
2022-09-09T15:31:31.463Z,15.25
2022-09-09T15:34:02.715Z,15.18
2022-09-09T15:36:33.156Z,15.25
2022-09-09T15:39:06.128Z,15.27
2022-09-09T15:41:34.977Z,15.28
2022-09-09T15:44:04.347Z,14.50
2022-09-09T15:46:34.541Z,14.12
2022-09-09T15:49:06.753Z,14.00
2022-09-09T15:51:42.841Z,14.02
2022-09-09T15:54:15.427Z,13.87
2022-09-09T15:56:44.392Z,13.74
2022-09-09T15:59:14.754Z,13.75
2022-09-09T16:01:43.508Z,13.90
2022-09-09T16:04:12.444Z,13.93
2022-09-09T16:06:43.528Z,14.08
2022-09-09T16:09:13.788Z,14.10
2022-09-09T16:11:42.577Z,14.05
2022-09-09T16:14:12.201Z,13.93
2022-09-09T16:16:41.896Z,13.93
2022-09-09T16:19:12.638Z,13.95
2022-09-09T16:21:43.476Z,13.98
2022-09-09T16:24:15.376Z,13.89
2022-09-09T16:26:46.371Z,13.83
2022-09-09T16:29:18.410Z,13.70
2022-09-09T16:31:47.185Z,13.69
2022-09-09T16:34:16.633Z,13.72
2022-09-09T16:36:45.705Z,13.80
2022-09-09T16:39:19.831Z,13.83
2022-09-09T16:41:49.507Z,13.92
2022-09-09T16:44:20.544Z,13.92
2022-09-09T16:46:56.741Z,13.92
2022-09-09T16:49:30.455Z,13.82
2022-09-09T16:52:01.021Z,13.71
2022-09-09T16:54:31.242Z,13.64
2022-09-09T16:57:01.428Z,13.66
2022-09-09T16:59:30.140Z,13.68
2022-09-09T17:01:58.937Z,13.70
2022-09-09T17:04:29.656Z,13.69
2022-09-09T17:07:01.471Z,13.69
2022-09-09T17:09:32.625Z,13.68
2022-09-09T17:12:02.000Z,13.71
2022-09-09T17:14:32.265Z,13.67
2022-09-09T17:17:18.968Z,13.66
2022-09-09T17:19:51.625Z,13.65
2022-09-09T17:22:21.010Z,13.64
2022-09-09T17:24:51.493Z,13.64
2022-09-09T17:27:20.420Z,13.59
2022-09-09T17:29:49.094Z,13.58
2022-09-09T17:32:17.869Z,13.58
2022-09-09T17:34:47.151Z,13.53
2022-09-09T17:37:15.979Z,13.52
2022-09-09T17:39:45.743Z,13.46
2022-09-09T17:42:21.706Z,13.47
2022-09-09T17:44:55.169Z,13.40
2022-09-09T17:47:46.533Z,13.31
2022-09-09T17:50:16.900Z,13.27
2022-09-09T17:52:47.589Z,13.28
2022-09-09T17:55:20.233Z,13.28
2022-09-09T17:57:50.465Z,13.28
2022-09-09T18:00:20.571Z,13.18
2022-09-09T18:02:49.924Z,13.14
2022-09-09T18:05:19.356Z,13.09
2022-09-09T18:07:49.101Z,13.10
2022-09-09T18:10:18.207Z,13.09
2022-09-09T18:12:47.292Z,13.09
2022-09-09T18:15:24.403Z,13.08
2022-09-09T18:18:08.553Z,13.01
2022-09-09T18:20:37.063Z,13.06
2022-09-09T18:23:05.815Z,13.09
2022-09-09T18:25:39.755Z,13.02
2022-09-09T18:28:09.033Z,13.03
2022-09-09T18:30:41.882Z,12.99
2022-09-09T18:33:11.494Z,12.90
2022-09-09T18:35:40.491Z,12.78
2022-09-09T18:38:10.549Z,12.85
2022-09-09T18:40:46.545Z,12.88
2022-09-09T18:43:18.588Z,12.91
2022-09-09T18:45:48.779Z,12.86
2022-09-09T18:48:17.613Z,12.85
2022-09-09T18:50:46.406Z,12.76
2022-09-09T18:53:15.994Z,12.87
2022-09-09T18:55:44.368Z,12.81
2022-09-09T18:58:14.217Z,12.84
2022-09-09T19:00:49.293Z,12.82
2022-09-09T19:03:18.065Z,12.85
2022-09-09T19:05:48.141Z,12.82
2022-09-09T19:08:16.905Z,12.91
2022-09-09T19:10:46.947Z,12.89
2022-09-09T19:13:16.159Z,12.95
2022-09-09T19:15:44.791Z,12.94
2022-09-09T19:18:15.321Z,12.93
2022-09-09T19:20:44.090Z,12.95
2022-09-09T19:23:12.780Z,12.78
2022-09-09T19:25:41.113Z,12.75
2022-09-09T19:28:10.423Z,12.68
2022-09-09T19:30:39.517Z,12.74
2022-09-09T19:33:08.355Z,12.70
2022-09-09T19:35:38.416Z,12.70
2022-09-09T19:38:07.831Z,12.75
2022-09-09T19:40:37.469Z,12.68
2022-09-09T19:43:07.357Z,12.57
2022-09-09T19:45:35.980Z,12.50
2022-09-09T19:48:06.356Z,12.53
2022-09-09T19:50:37.052Z,12.54
2022-09-09T19:53:07.140Z,12.47
2022-09-09T19:55:40.214Z,12.39
2022-09-09T19:58:08.878Z,12.43
2022-09-09T20:00:39.647Z,12.38
2022-09-09T20:03:19.259Z,12.34
2022-09-09T20:05:50.085Z,12.29
2022-09-09T20:08:21.332Z,12.26
2022-09-09T20:10:53.786Z,12.32
2022-09-09T20:13:22.930Z,12.21
2022-09-09T20:16:00.499Z,12.22
2022-09-09T20:18:34.333Z,12.28
2022-09-09T20:21:05.561Z,12.06
2022-09-09T20:23:35.863Z,12.14
2022-09-09T20:26:06.747Z,12.17
2022-09-09T20:28:35.703Z,12.29
2022-09-09T20:31:08.495Z,12.20
2022-09-09T20:33:37.791Z,12.13
2022-09-09T20:36:12.559Z,12.08
2022-09-09T20:38:47.019Z,12.12
2022-09-09T20:41:18.690Z,12.18
2022-09-09T20:43:49.049Z,12.07
2022-09-09T20:46:19.046Z,12.07
2022-09-09T20:50:04.856Z,12.04
2022-09-09T20:52:33.461Z,12.01
2022-09-09T20:55:53.270Z,11.98
2022-09-09T20:58:23.310Z,12.13
2022-09-09T21:00:53.714Z,12.16
2022-09-09T21:03:22.300Z,12.25
2022-09-09T21:05:51.652Z,12.29
2022-09-09T21:08:20.248Z,12.33
2022-09-09T21:10:49.488Z,12.24
2022-09-09T21:13:18.266Z,12.30
2022-09-09T21:15:48.802Z,12.35
2022-09-09T21:18:19.024Z,12.38
2022-09-09T21:20:48.342Z,12.35
2022-09-09T21:23:18.504Z,12.23
2022-09-09T21:25:47.452Z,12.19
2022-09-09T21:28:16.683Z,12.22
2022-09-09T21:30:51.476Z,12.23
2022-09-09T21:33:22.426Z,12.19
2022-09-09T21:35:51.488Z,12.20
2022-09-09T21:38:22.049Z,12.22
2022-09-09T21:40:50.822Z,12.24
2022-09-09T21:43:20.941Z,12.27
2022-09-09T21:45:54.203Z,12.32
2022-09-09T21:48:23.859Z,12.35
2022-09-09T21:50:52.867Z,12.32
2022-09-09T21:53:21.631Z,12.20
2022-09-09T21:55:50.478Z,12.27
2022-09-09T21:58:19.481Z,12.21
2022-09-09T22:00:50.346Z,12.19
2022-09-09T22:03:19.037Z,12.18
2022-09-09T22:05:51.930Z,12.21
2022-09-09T22:08:22.795Z,12.18
2022-09-09T22:10:51.127Z,12.15
2022-09-09T22:13:20.308Z,12.11
2022-09-09T22:15:51.122Z,12.02
2022-09-09T22:18:19.902Z,12.03
2022-09-09T22:20:48.609Z,11.99
2022-09-09T22:23:17.256Z,11.96
2022-09-09T22:25:45.702Z,12.05
2022-09-09T22:28:14.941Z,12.14
2022-09-09T22:30:44.214Z,12.23
2022-09-09T22:33:14.304Z,12.09
2022-09-09T22:35:43.665Z,12.01
2022-09-09T22:38:12.619Z,12.08
2022-09-09T22:40:41.868Z,12.05
2022-09-09T22:43:15.428Z,12.00
2022-09-09T22:45:44.291Z,12.01
2022-09-09T22:48:14.938Z,12.08
2022-09-09T22:51:56.733Z,12.14
2022-09-09T22:54:27.067Z,12.12
2022-09-09T22:56:55.797Z,11.96
2022-09-09T22:59:24.859Z,11.95
2022-09-09T23:01:53.294Z,11.90
2022-09-09T23:08:46.809Z,12.05
2022-09-09T23:11:15.824Z,12.06
2022-09-09T23:13:50.239Z,12.12
2022-09-09T23:16:20.613Z,12.10
2022-09-09T23:18:52.282Z,12.06
2022-09-09T23:21:26.403Z,12.03
2022-09-09T23:23:56.400Z,12.00
2022-09-09T23:26:26.328Z,11.90
2022-09-09T23:28:55.402Z,11.91
2022-09-09T23:31:26.457Z,11.91
2022-09-09T23:33:55.503Z,11.90
2022-09-09T23:36:26.249Z,11.91
2022-09-09T23:38:56.338Z,11.90
2022-09-09T23:41:25.604Z,11.90
2022-09-09T23:43:54.801Z,11.90
2022-09-09T23:46:25.410Z,11.91
2022-09-09T23:48:53.982Z,11.93
2022-09-09T23:51:25.566Z,11.88
2022-09-09T23:53:57.063Z,11.86
2022-09-09T23:56:27.110Z,11.81
2022-09-09T23:58:56.208Z,11.77
